Impacts TAF Board
For situational awareness. Not to be used for flight planning purposes.
IDs:

KDCA - Washington/National, VA, US

Issued at 2341 UTC 15 Oct 2018
Updated at 0156 UTC 16 Oct 2018
Potential Impact None Slight Moderate High
Time<<17/02Z 17/03Z 17/04Z 17/05Z 17/06Z 17/07Z 17/08Z 17/09Z 17/10Z 17/11Z 17/12Z 17/13Z 17/14Z
Type PRVL PRVL PRVL PRVL
VIS >6 >6 >6 >6
CIG -- -- -- --
Cover SCT SCT SCT SCT
FltCat VFR VFR VFR VFR
WX -- -- -- --
WDir 250 180 180 180
WSpd 5 4 4 4
WGst -- -- -- --
Raw TAF
KDCA 152341Z 1600/1706 20010KT P6SM VCSH BKN050 OVC100
  FM160300 27008KT 6SM -SHRA BKN050 OVC100
  FM160500 33015G25KT P6SM SCT050 BKN100
  FM161100 34008G16KT P6SM SCT100
  FM161700 32008KT P6SM SCT100
  FM162200 25005KT P6SM SCT100
  FM170300 18004KT P6SM SCT100


METAR Board
Radar Display
Forecast Discussion
For situational awareness. Not to be used for flight planning purposes.